sensor_id;sensor_type;location;lat;lon;timestamp;P1;durP1;ratioP1;P2;durP2;ratioP2
4630;SDS011;2328;48.170;11.602;2022-12-05T00:01:11;11.07;;;4.40;;
4630;SDS011;2328;48.170;11.602;2022-12-05T00:03:40;6.00;;;2.77;;
4630;SDS011;2328;48.170;11.602;2022-12-05T00:06:09;8.07;;;2.83;;
4630;SDS011;2328;48.170;11.602;2022-12-05T00:08:38;5.97;;;3.30;;
4630;SDS011;2328;48.170;11.602;2022-12-05T00:11:09;11.03;;;3.57;;
4630;SDS011;2328;48.170;11.602;2022-12-05T00:13:40;8.97;;;2.60;;
4630;SDS011;2328;48.170;11.602;2022-12-05T00:16:09;7.30;;;2.77;;
4630;SDS011;2328;48.170;11.602;2022-12-05T00:18:37;6.13;;;2.70;;
4630;SDS011;2328;48.170;11.602;2022-12-05T00:21:06;6.77;;;3.33;;
4630;SDS011;2328;48.170;11.602;2022-12-05T00:23:39;6.07;;;2.70;;
4630;SDS011;2328;48.170;11.602;2022-12-05T00:26:07;5.13;;;1.90;;
4630;SDS011;2328;48.170;11.602;2022-12-05T00:28:36;6.43;;;3.30;;
4630;SDS011;2328;48.170;11.602;2022-12-05T00:31:07;4.00;;;2.80;;
4630;SDS011;2328;48.170;11.602;2022-12-05T00:33:36;9.27;;;3.27;;
4630;SDS011;2328;48.170;11.602;2022-12-05T00:36:06;7.40;;;3.40;;
4630;SDS011;2328;48.170;11.602;2022-12-05T00:38:35;8.27;;;3.07;;
4630;SDS011;2328;48.170;11.602;2022-12-05T00:41:04;8.97;;;2.90;;
4630;SDS011;2328;48.170;11.602;2022-12-05T00:43:33;8.23;;;3.40;;
4630;SDS011;2328;48.170;11.602;2022-12-05T00:46:01;4.87;;;2.73;;
4630;SDS011;2328;48.170;11.602;2022-12-05T00:48:32;6.80;;;3.20;;
4630;SDS011;2328;48.170;11.602;2022-12-05T00:51:01;8.33;;;3.47;;
4630;SDS011;2328;48.170;11.602;2022-12-05T00:53:29;10.90;;;2.97;;
4630;SDS011;2328;48.170;11.602;2022-12-05T00:56:00;6.70;;;2.30;;
4630;SDS011;2328;48.170;11.602;2022-12-05T00:58:28;8.67;;;3.33;;
4630;SDS011;2328;48.170;11.602;2022-12-05T01:00:57;5.90;;;3.00;;
4630;SDS011;2328;48.170;11.602;2022-12-05T01:03:33;6.37;;;3.10;;
4630;SDS011;2328;48.170;11.602;2022-12-05T01:06:02;8.47;;;3.10;;
4630;SDS011;2328;48.170;11.602;2022-12-05T01:08:31;7.07;;;2.67;;
4630;SDS011;2328;48.170;11.602;2022-12-05T01:11:00;9.70;;;3.47;;
4630;SDS011;2328;48.170;11.602;2022-12-05T01:13:29;5.47;;;3.07;;
4630;SDS011;2328;48.170;11.602;2022-12-05T01:15:58;4.93;;;2.90;;
4630;SDS011;2328;48.170;11.602;2022-12-05T01:18:27;5.57;;;3.20;;
4630;SDS011;2328;48.170;11.602;2022-12-05T01:21:04;3.47;;;2.23;;
4630;SDS011;2328;48.170;11.602;2022-12-05T01:23:32;8.23;;;3.33;;
4630;SDS011;2328;48.170;11.602;2022-12-05T01:26:04;4.00;;;2.60;;
4630;SDS011;2328;48.170;11.602;2022-12-05T01:28:32;8.93;;;3.53;;
4630;SDS011;2328;48.170;11.602;2022-12-05T01:31:03;6.30;;;2.97;;
4630;SDS011;2328;48.170;11.602;2022-12-05T01:33:32;12.10;;;2.40;;
4630;SDS011;2328;48.170;11.602;2022-12-05T01:36:02;10.67;;;3.40;;
4630;SDS011;2328;48.170;11.602;2022-12-05T01:38:32;8.03;;;2.70;;
4630;SDS011;2328;48.170;11.602;2022-12-05T01:41:01;5.80;;;2.40;;
4630;SDS011;2328;48.170;11.602;2022-12-05T01:43:30;8.10;;;3.20;;
4630;SDS011;2328;48.170;11.602;2022-12-05T01:45:59;6.60;;;3.23;;
4630;SDS011;2328;48.170;11.602;2022-12-05T01:48:29;9.00;;;3.30;;
4630;SDS011;2328;48.170;11.602;2022-12-05T01:50:59;5.43;;;2.73;;
4630;SDS011;2328;48.170;11.602;2022-12-05T01:53:29;5.27;;;2.50;;
4630;SDS011;2328;48.170;11.602;2022-12-05T01:55:57;14.80;;;4.00;;
4630;SDS011;2328;48.170;11.602;2022-12-05T01:58:27;7.67;;;3.13;;
4630;SDS011;2328;48.170;11.602;2022-12-05T02:00:59;12.80;;;4.00;;
4630;SDS011;2328;48.170;11.602;2022-12-05T02:03:28;5.83;;;3.13;;
4630;SDS011;2328;48.170;11.602;2022-12-05T02:05:56;5.13;;;2.60;;
4630;SDS011;2328;48.170;11.602;2022-12-05T02:08:27;3.23;;;2.87;;
4630;SDS011;2328;48.170;11.602;2022-12-05T02:10:57;9.60;;;3.57;;
4630;SDS011;2328;48.170;11.602;2022-12-05T02:13:31;6.50;;;2.87;;
4630;SDS011;2328;48.170;11.602;2022-12-05T02:16:02;8.23;;;3.70;;
4630;SDS011;2328;48.170;11.602;2022-12-05T02:18:39;8.17;;;3.07;;
4630;SDS011;2328;48.170;11.602;2022-12-05T02:21:28;4.90;;;2.77;;
4630;SDS011;2328;48.170;11.602;2022-12-05T02:24:02;12.37;;;3.73;;
4630;SDS011;2328;48.170;11.602;2022-12-05T02:26:51;6.70;;;2.63;;
4630;SDS011;2328;48.170;11.602;2022-12-05T02:32:17;6.50;;;3.10;;
4630;SDS011;2328;48.170;11.602;2022-12-05T02:34:50;10.43;;;3.73;;
4630;SDS011;2328;48.170;11.602;2022-12-05T02:37:26;7.90;;;3.40;;
4630;SDS011;2328;48.170;11.602;2022-12-05T02:39:56;9.47;;;3.30;;
4630;SDS011;2328;48.170;11.602;2022-12-05T02:42:29;6.00;;;3.90;;
4630;SDS011;2328;48.170;11.602;2022-12-05T02:44:59;8.10;;;3.17;;
4630;SDS011;2328;48.170;11.602;2022-12-05T02:47:30;6.90;;;2.93;;
4630;SDS011;2328;48.170;11.602;2022-12-05T02:50:00;4.20;;;2.63;;
4630;SDS011;2328;48.170;11.602;2022-12-05T02:52:30;9.07;;;4.00;;
4630;SDS011;2328;48.170;11.602;2022-12-05T02:54:59;7.20;;;3.63;;
4630;SDS011;2328;48.170;11.602;2022-12-05T02:57:28;8.23;;;3.63;;
4630;SDS011;2328;48.170;11.602;2022-12-05T02:59:57;4.23;;;2.87;;
4630;SDS011;2328;48.170;11.602;2022-12-05T03:02:26;9.03;;;3.57;;
4630;SDS011;2328;48.170;11.602;2022-12-05T03:05:00;13.47;;;3.70;;
4630;SDS011;2328;48.170;11.602;2022-12-05T03:07:33;7.40;;;3.90;;
4630;SDS011;2328;48.170;11.602;2022-12-05T03:10:12;11.90;;;3.60;;
4630;SDS011;2328;48.170;11.602;2022-12-05T03:12:43;13.47;;;3.87;;
4630;SDS011;2328;48.170;11.602;2022-12-05T03:15:18;6.33;;;2.97;;
4630;SDS011;2328;48.170;11.602;2022-12-05T03:17:50;9.80;;;3.77;;
4630;SDS011;2328;48.170;11.602;2022-12-05T03:20:24;10.60;;;3.67;;
4630;SDS011;2328;48.170;11.602;2022-12-05T03:22:56;18.00;;;3.77;;
4630;SDS011;2328;48.170;11.602;2022-12-05T03:25:28;7.50;;;2.70;;
4630;SDS011;2328;48.170;11.602;2022-12-05T03:28:01;6.23;;;2.27;;
4630;SDS011;2328;48.170;11.602;2022-12-05T03:30:30;7.57;;;3.57;;
4630;SDS011;2328;48.170;11.602;2022-12-05T03:33:04;13.93;;;3.67;;
4630;SDS011;2328;48.170;11.602;2022-12-05T03:35:38;9.20;;;3.50;;
4630;SDS011;2328;48.170;11.602;2022-12-05T03:38:10;8.90;;;3.20;;
4630;SDS011;2328;48.170;11.602;2022-12-05T03:40:41;9.00;;;3.57;;
4630;SDS011;2328;48.170;11.602;2022-12-05T03:43:13;5.30;;;2.43;;
4630;SDS011;2328;48.170;11.602;2022-12-05T03:45:44;6.20;;;2.90;;
4630;SDS011;2328;48.170;11.602;2022-12-05T03:48:16;6.90;;;3.03;;
4630;SDS011;2328;48.170;11.602;2022-12-05T03:50:46;3.10;;;2.03;;
4630;SDS011;2328;48.170;11.602;2022-12-05T03:53:16;8.97;;;3.63;;
4630;SDS011;2328;48.170;11.602;2022-12-05T03:55:48;8.83;;;3.33;;
4630;SDS011;2328;48.170;11.602;2022-12-05T03:58:19;4.80;;;2.83;;
4630;SDS011;2328;48.170;11.602;2022-12-05T04:00:50;8.07;;;3.70;;
4630;SDS011;2328;48.170;11.602;2022-12-05T04:03:20;7.20;;;2.93;;
4630;SDS011;2328;48.170;11.602;2022-12-05T04:06:01;7.73;;;2.57;;
4630;SDS011;2328;48.170;11.602;2022-12-05T04:08:32;4.13;;;2.57;;
4630;SDS011;2328;48.170;11.602;2022-12-05T04:11:03;11.33;;;4.00;;
4630;SDS011;2328;48.170;11.602;2022-12-05T04:13:35;8.47;;;2.67;;
4630;SDS011;2328;48.170;11.602;2022-12-05T04:16:08;3.70;;;2.93;;
4630;SDS011;2328;48.170;11.602;2022-12-05T04:18:57;7.60;;;3.20;;
4630;SDS011;2328;48.170;11.602;2022-12-05T04:21:28;8.17;;;2.70;;
4630;SDS011;2328;48.170;11.602;2022-12-05T04:24:07;4.67;;;2.40;;
4630;SDS011;2328;48.170;11.602;2022-12-05T04:26:58;6.40;;;3.03;;
4630;SDS011;2328;48.170;11.602;2022-12-05T04:29:28;7.73;;;3.07;;
4630;SDS011;2328;48.170;11.602;2022-12-05T04:31:59;6.23;;;2.80;;
4630;SDS011;2328;48.170;11.602;2022-12-05T04:34:29;7.37;;;2.93;;
4630;SDS011;2328;48.170;11.602;2022-12-05T04:37:01;5.77;;;2.60;;
4630;SDS011;2328;48.170;11.602;2022-12-05T04:39:31;7.50;;;3.20;;
4630;SDS011;2328;48.170;11.602;2022-12-05T04:42:03;8.00;;;2.10;;
4630;SDS011;2328;48.170;11.602;2022-12-05T04:44:33;5.70;;;3.13;;
4630;SDS011;2328;48.170;11.602;2022-12-05T04:47:04;13.90;;;3.27;;
4630;SDS011;2328;48.170;11.602;2022-12-05T04:49:33;6.53;;;2.80;;
4630;SDS011;2328;48.170;11.602;2022-12-05T04:52:06;10.87;;;3.30;;
4630;SDS011;2328;48.170;11.602;2022-12-05T04:54:36;5.80;;;2.43;;
4630;SDS011;2328;48.170;11.602;2022-12-05T04:57:07;6.77;;;2.07;;
4630;SDS011;2328;48.170;11.602;2022-12-05T04:59:37;7.73;;;3.07;;
4630;SDS011;2328;48.170;11.602;2022-12-05T05:02:07;4.30;;;2.53;;
4630;SDS011;2328;48.170;11.602;2022-12-05T05:04:37;8.93;;;3.30;;
4630;SDS011;2328;48.170;11.602;2022-12-05T05:07:08;11.40;;;3.50;;
4630;SDS011;2328;48.170;11.602;2022-12-05T05:09:37;6.67;;;2.60;;
4630;SDS011;2328;48.170;11.602;2022-12-05T05:12:07;8.30;;;2.73;;
4630;SDS011;2328;48.170;11.602;2022-12-05T05:14:43;6.87;;;2.63;;
4630;SDS011;2328;48.170;11.602;2022-12-05T05:17:12;13.33;;;4.40;;
4630;SDS011;2328;48.170;11.602;2022-12-05T05:19:40;5.40;;;2.73;;
4630;SDS011;2328;48.170;11.602;2022-12-05T05:22:17;5.23;;;2.83;;
4630;SDS011;2328;48.170;11.602;2022-12-05T05:24:45;8.70;;;2.53;;
4630;SDS011;2328;48.170;11.602;2022-12-05T05:27:14;4.97;;;2.90;;
4630;SDS011;2328;48.170;11.602;2022-12-05T05:29:42;5.47;;;2.87;;
4630;SDS011;2328;48.170;11.602;2022-12-05T05:32:11;9.27;;;2.90;;
4630;SDS011;2328;48.170;11.602;2022-12-05T05:34:40;4.80;;;2.70;;
4630;SDS011;2328;48.170;11.602;2022-12-05T05:37:08;11.93;;;3.30;;
4630;SDS011;2328;48.170;11.602;2022-12-05T05:39:38;8.07;;;3.27;;
4630;SDS011;2328;48.170;11.602;2022-12-05T05:42:07;6.90;;;3.07;;
4630;SDS011;2328;48.170;11.602;2022-12-05T05:44:35;9.77;;;3.60;;
4630;SDS011;2328;48.170;11.602;2022-12-05T05:47:04;9.47;;;3.67;;
4630;SDS011;2328;48.170;11.602;2022-12-05T05:49:32;10.60;;;3.27;;
4630;SDS011;2328;48.170;11.602;2022-12-05T05:52:01;10.30;;;3.27;;
4630;SDS011;2328;48.170;11.602;2022-12-05T05:54:30;7.80;;;3.60;;
4630;SDS011;2328;48.170;11.602;2022-12-05T05:56:59;8.27;;;3.37;;
4630;SDS011;2328;48.170;11.602;2022-12-05T05:59:28;4.40;;;2.67;;
4630;SDS011;2328;48.170;11.602;2022-12-05T06:01:57;13.83;;;4.30;;
4630;SDS011;2328;48.170;11.602;2022-12-05T06:04:26;8.93;;;3.73;;
4630;SDS011;2328;48.170;11.602;2022-12-05T06:06:54;9.83;;;3.00;;
4630;SDS011;2328;48.170;11.602;2022-12-05T06:09:22;7.97;;;3.57;;
4630;SDS011;2328;48.170;11.602;2022-12-05T06:11:51;8.07;;;3.47;;
4630;SDS011;2328;48.170;11.602;2022-12-05T06:14:21;7.40;;;3.60;;
4630;SDS011;2328;48.170;11.602;2022-12-05T06:16:49;10.90;;;3.73;;
4630;SDS011;2328;48.170;11.602;2022-12-05T06:19:17;15.50;;;3.40;;
4630;SDS011;2328;48.170;11.602;2022-12-05T06:21:47;6.40;;;3.57;;
4630;SDS011;2328;48.170;11.602;2022-12-05T06:24:17;10.57;;;3.27;;
4630;SDS011;2328;48.170;11.602;2022-12-05T06:26:46;7.80;;;3.23;;
4630;SDS011;2328;48.170;11.602;2022-12-05T06:29:14;7.13;;;3.03;;
4630;SDS011;2328;48.170;11.602;2022-12-05T06:31:50;8.50;;;3.83;;
4630;SDS011;2328;48.170;11.602;2022-12-05T06:34:19;4.83;;;2.77;;
4630;SDS011;2328;48.170;11.602;2022-12-05T06:36:48;6.70;;;2.90;;
4630;SDS011;2328;48.170;11.602;2022-12-05T06:39:16;9.67;;;3.70;;
4630;SDS011;2328;48.170;11.602;2022-12-05T06:41:44;5.60;;;2.70;;
4630;SDS011;2328;48.170;11.602;2022-12-05T06:44:13;11.23;;;4.90;;
4630;SDS011;2328;48.170;11.602;2022-12-05T06:46:41;7.87;;;3.20;;
4630;SDS011;2328;48.170;11.602;2022-12-05T06:49:11;9.40;;;3.60;;
4630;SDS011;2328;48.170;11.602;2022-12-05T06:51:40;11.60;;;3.73;;
4630;SDS011;2328;48.170;11.602;2022-12-05T06:54:10;11.97;;;3.60;;
4630;SDS011;2328;48.170;11.602;2022-12-05T06:56:38;6.67;;;2.90;;
4630;SDS011;2328;48.170;11.602;2022-12-05T06:59:07;7.60;;;3.40;;
4630;SDS011;2328;48.170;11.602;2022-12-05T07:01:36;9.27;;;3.37;;
4630;SDS011;2328;48.170;11.602;2022-12-05T07:04:04;8.10;;;3.30;;
4630;SDS011;2328;48.170;11.602;2022-12-05T07:06:35;8.10;;;3.53;;
4630;SDS011;2328;48.170;11.602;2022-12-05T07:09:03;7.00;;;2.80;;
4630;SDS011;2328;48.170;11.602;2022-12-05T07:11:32;9.33;;;3.13;;
4630;SDS011;2328;48.170;11.602;2022-12-05T07:14:01;15.67;;;4.47;;
4630;SDS011;2328;48.170;11.602;2022-12-05T07:16:44;10.23;;;3.80;;
4630;SDS011;2328;48.170;11.602;2022-12-05T07:19:13;5.83;;;2.90;;
4630;SDS011;2328;48.170;11.602;2022-12-05T07:21:42;5.67;;;2.77;;
4630;SDS011;2328;48.170;11.602;2022-12-05T07:24:11;7.67;;;3.27;;
4630;SDS011;2328;48.170;11.602;2022-12-05T07:26:39;10.77;;;3.57;;
4630;SDS011;2328;48.170;11.602;2022-12-05T07:29:08;4.97;;;2.67;;
4630;SDS011;2328;48.170;11.602;2022-12-05T07:31:37;7.23;;;3.97;;
4630;SDS011;2328;48.170;11.602;2022-12-05T07:34:06;9.77;;;3.90;;
4630;SDS011;2328;48.170;11.602;2022-12-05T07:36:34;13.77;;;3.33;;
4630;SDS011;2328;48.170;11.602;2022-12-05T07:39:04;8.57;;;3.23;;
4630;SDS011;2328;48.170;11.602;2022-12-05T07:41:32;5.30;;;2.37;;
4630;SDS011;2328;48.170;11.602;2022-12-05T07:44:01;10.93;;;3.27;;
4630;SDS011;2328;48.170;11.602;2022-12-05T07:46:29;8.23;;;3.10;;
4630;SDS011;2328;48.170;11.602;2022-12-05T07:48:58;7.53;;;3.10;;
4630;SDS011;2328;48.170;11.602;2022-12-05T07:51:26;13.17;;;3.60;;
4630;SDS011;2328;48.170;11.602;2022-12-05T07:53:59;8.00;;;4.00;;
4630;SDS011;2328;48.170;11.602;2022-12-05T08:00:02;7.80;;;3.40;;
4630;SDS011;2328;48.170;11.602;2022-12-05T08:02:32;9.70;;;3.10;;
4630;SDS011;2328;48.170;11.602;2022-12-05T08:05:08;4.83;;;2.60;;
4630;SDS011;2328;48.170;11.602;2022-12-05T08:07:39;6.10;;;3.30;;
4630;SDS011;2328;48.170;11.602;2022-12-05T08:10:08;7.43;;;2.20;;
4630;SDS011;2328;48.170;11.602;2022-12-05T08:12:36;10.83;;;3.70;;
4630;SDS011;2328;48.170;11.602;2022-12-05T08:15:08;7.43;;;3.60;;
4630;SDS011;2328;48.170;11.602;2022-12-05T08:17:36;5.17;;;3.03;;
4630;SDS011;2328;48.170;11.602;2022-12-05T08:20:05;6.93;;;2.83;;
4630;SDS011;2328;48.170;11.602;2022-12-05T08:22:34;6.80;;;3.53;;
4630;SDS011;2328;48.170;11.602;2022-12-05T08:25:15;9.10;;;4.00;;
4630;SDS011;2328;48.170;11.602;2022-12-05T08:27:45;8.13;;;3.20;;
4630;SDS011;2328;48.170;11.602;2022-12-05T08:30:15;10.27;;;3.70;;
4630;SDS011;2328;48.170;11.602;2022-12-05T08:32:44;7.37;;;3.20;;
4630;SDS011;2328;48.170;11.602;2022-12-05T08:35:12;6.93;;;3.40;;
4630;SDS011;2328;48.170;11.602;2022-12-05T08:37:41;6.70;;;2.90;;
4630;SDS011;2328;48.170;11.602;2022-12-05T08:40:16;10.93;;;3.80;;
4630;SDS011;2328;48.170;11.602;2022-12-05T08:42:44;8.07;;;3.93;;
4630;SDS011;2328;48.170;11.602;2022-12-05T08:45:14;8.17;;;2.63;;
4630;SDS011;2328;48.170;11.602;2022-12-05T08:47:43;14.70;;;4.40;;
4630;SDS011;2328;48.170;11.602;2022-12-05T08:50:11;10.63;;;3.47;;
4630;SDS011;2328;48.170;11.602;2022-12-05T08:52:39;7.63;;;3.83;;
4630;SDS011;2328;48.170;11.602;2022-12-05T08:55:08;7.90;;;3.80;;
4630;SDS011;2328;48.170;11.602;2022-12-05T08:57:36;10.87;;;4.30;;
4630;SDS011;2328;48.170;11.602;2022-12-05T09:00:12;9.80;;;4.50;;
4630;SDS011;2328;48.170;11.602;2022-12-05T09:02:45;5.90;;;3.40;;
4630;SDS011;2328;48.170;11.602;2022-12-05T09:05:17;10.40;;;4.00;;
4630;SDS011;2328;48.170;11.602;2022-12-05T09:07:54;7.83;;;4.07;;
4630;SDS011;2328;48.170;11.602;2022-12-05T09:10:30;9.07;;;3.70;;
4630;SDS011;2328;48.170;11.602;2022-12-05T09:12:58;10.57;;;4.80;;
4630;SDS011;2328;48.170;11.602;2022-12-05T09:15:27;7.57;;;2.80;;
4630;SDS011;2328;48.170;11.602;2022-12-05T09:17:57;10.30;;;4.03;;
4630;SDS011;2328;48.170;11.602;2022-12-05T09:20:25;5.10;;;2.87;;
4630;SDS011;2328;48.170;11.602;2022-12-05T09:23:01;7.03;;;3.00;;
4630;SDS011;2328;48.170;11.602;2022-12-05T09:25:30;6.43;;;4.00;;
4630;SDS011;2328;48.170;11.602;2022-12-05T09:27:59;7.17;;;3.53;;
4630;SDS011;2328;48.170;11.602;2022-12-05T09:30:27;9.70;;;2.87;;
4630;SDS011;2328;48.170;11.602;2022-12-05T09:32:57;12.80;;;4.40;;
4630;SDS011;2328;48.170;11.602;2022-12-05T09:35:26;6.20;;;3.33;;
4630;SDS011;2328;48.170;11.602;2022-12-05T09:37:55;6.93;;;3.13;;
4630;SDS011;2328;48.170;11.602;2022-12-05T09:40:23;10.70;;;3.63;;
4630;SDS011;2328;48.170;11.602;2022-12-05T09:42:57;7.77;;;3.37;;
4630;SDS011;2328;48.170;11.602;2022-12-05T09:45:32;9.20;;;3.63;;
4630;SDS011;2328;48.170;11.602;2022-12-05T09:48:05;8.47;;;3.60;;
4630;SDS011;2328;48.170;11.602;2022-12-05T09:50:38;8.00;;;4.43;;
4630;SDS011;2328;48.170;11.602;2022-12-05T09:53:12;11.60;;;4.50;;
4630;SDS011;2328;48.170;11.602;2022-12-05T09:55:45;5.23;;;3.50;;
4630;SDS011;2328;48.170;11.602;2022-12-05T09:58:19;7.83;;;4.47;;
4630;SDS011;2328;48.170;11.602;2022-12-05T10:00:48;7.90;;;2.97;;
4630;SDS011;2328;48.170;11.602;2022-12-05T10:03:23;6.37;;;3.57;;
4630;SDS011;2328;48.170;11.602;2022-12-05T10:05:56;7.30;;;3.40;;
4630;SDS011;2328;48.170;11.602;2022-12-05T10:08:28;8.57;;;3.43;;
4630;SDS011;2328;48.170;11.602;2022-12-05T10:11:00;8.27;;;3.43;;
4630;SDS011;2328;48.170;11.602;2022-12-05T10:13:47;8.70;;;3.60;;
4630;SDS011;2328;48.170;11.602;2022-12-05T10:16:22;7.90;;;3.73;;
4630;SDS011;2328;48.170;11.602;2022-12-05T10:18:53;16.47;;;3.30;;
4630;SDS011;2328;48.170;11.602;2022-12-05T10:21:26;13.60;;;3.73;;
4630;SDS011;2328;48.170;11.602;2022-12-05T10:23:56;15.10;;;4.37;;
4630;SDS011;2328;48.170;11.602;2022-12-05T10:26:32;7.60;;;4.13;;
4630;SDS011;2328;48.170;11.602;2022-12-05T10:29:03;15.00;;;4.73;;
4630;SDS011;2328;48.170;11.602;2022-12-05T10:31:35;10.90;;;4.77;;
4630;SDS011;2328;48.170;11.602;2022-12-05T10:34:09;7.07;;;3.70;;
4630;SDS011;2328;48.170;11.602;2022-12-05T10:36:39;8.87;;;4.23;;
4630;SDS011;2328;48.170;11.602;2022-12-05T10:39:10;12.20;;;3.90;;
4630;SDS011;2328;48.170;11.602;2022-12-05T10:41:39;6.20;;;3.10;;
4630;SDS011;2328;48.170;11.602;2022-12-05T10:44:08;6.67;;;4.07;;
4630;SDS011;2328;48.170;11.602;2022-12-05T10:46:37;7.00;;;3.67;;
4630;SDS011;2328;48.170;11.602;2022-12-05T10:49:10;9.30;;;4.27;;
4630;SDS011;2328;48.170;11.602;2022-12-05T10:51:39;4.60;;;3.10;;
4630;SDS011;2328;48.170;11.602;2022-12-05T10:54:12;9.50;;;3.37;;
4630;SDS011;2328;48.170;11.602;2022-12-05T10:56:43;6.23;;;3.90;;
4630;SDS011;2328;48.170;11.602;2022-12-05T10:59:12;9.00;;;3.27;;
4630;SDS011;2328;48.170;11.602;2022-12-05T11:01:43;7.30;;;3.00;;
4630;SDS011;2328;48.170;11.602;2022-12-05T11:04:22;4.60;;;2.73;;
4630;SDS011;2328;48.170;11.602;2022-12-05T11:06:52;13.10;;;4.20;;
4630;SDS011;2328;48.170;11.602;2022-12-05T11:09:22;6.97;;;3.60;;
4630;SDS011;2328;48.170;11.602;2022-12-05T11:14:46;4.90;;;3.40;;
4630;SDS011;2328;48.170;11.602;2022-12-05T11:17:22;17.60;;;3.93;;
4630;SDS011;2328;48.170;11.602;2022-12-05T11:19:52;5.93;;;3.50;;
4630;SDS011;2328;48.170;11.602;2022-12-05T11:22:28;7.97;;;3.37;;
4630;SDS011;2328;48.170;11.602;2022-12-05T11:24:57;6.37;;;2.93;;
4630;SDS011;2328;48.170;11.602;2022-12-05T11:27:27;7.40;;;3.47;;
4630;SDS011;2328;48.170;11.602;2022-12-05T11:29:57;8.50;;;2.83;;
4630;SDS011;2328;48.170;11.602;2022-12-05T11:32:26;7.70;;;3.23;;
4630;SDS011;2328;48.170;11.602;2022-12-05T11:35:00;6.23;;;3.07;;
4630;SDS011;2328;48.170;11.602;2022-12-05T11:37:31;5.93;;;2.70;;
4630;SDS011;2328;48.170;11.602;2022-12-05T11:40:10;5.03;;;3.60;;
4630;SDS011;2328;48.170;11.602;2022-12-05T11:42:40;7.90;;;3.57;;
4630;SDS011;2328;48.170;11.602;2022-12-05T11:45:16;7.00;;;3.70;;
4630;SDS011;2328;48.170;11.602;2022-12-05T11:48:02;4.60;;;3.10;;
4630;SDS011;2328;48.170;11.602;2022-12-05T11:50:38;7.30;;;3.63;;
4630;SDS011;2328;48.170;11.602;2022-12-05T11:53:13;6.63;;;3.07;;
4630;SDS011;2328;48.170;11.602;2022-12-05T11:55:45;6.93;;;3.43;;
4630;SDS011;2328;48.170;11.602;2022-12-05T11:58:21;8.30;;;3.77;;
4630;SDS011;2328;48.170;11.602;2022-12-05T12:00:55;6.70;;;3.47;;
4630;SDS011;2328;48.170;11.602;2022-12-05T12:03:33;9.27;;;3.17;;
4630;SDS011;2328;48.170;11.602;2022-12-05T12:06:11;7.10;;;3.43;;
4630;SDS011;2328;48.170;11.602;2022-12-05T12:08:44;6.10;;;2.63;;
4630;SDS011;2328;48.170;11.602;2022-12-05T12:11:17;5.27;;;2.90;;
4630;SDS011;2328;48.170;11.602;2022-12-05T12:14:08;9.70;;;3.00;;
4630;SDS011;2328;48.170;11.602;2022-12-05T12:16:48;5.67;;;3.20;;
4630;SDS011;2328;48.170;11.602;2022-12-05T12:19:25;9.00;;;3.77;;
4630;SDS011;2328;48.170;11.602;2022-12-05T12:22:10;5.97;;;3.40;;
4630;SDS011;2328;48.170;11.602;2022-12-05T12:24:48;4.50;;;2.50;;
4630;SDS011;2328;48.170;11.602;2022-12-05T12:27:20;5.27;;;3.00;;
4630;SDS011;2328;48.170;11.602;2022-12-05T12:29:54;7.40;;;2.57;;
4630;SDS011;2328;48.170;11.602;2022-12-05T12:32:28;4.53;;;2.70;;
4630;SDS011;2328;48.170;11.602;2022-12-05T12:37:50;4.97;;;2.70;;
4630;SDS011;2328;48.170;11.602;2022-12-05T12:40:21;4.00;;;2.90;;
4630;SDS011;2328;48.170;11.602;2022-12-05T12:42:55;4.37;;;2.70;;
4630;SDS011;2328;48.170;11.602;2022-12-05T12:45:26;5.23;;;2.93;;
4630;SDS011;2328;48.170;11.602;2022-12-05T12:48:07;2.53;;;1.80;;
4630;SDS011;2328;48.170;11.602;2022-12-05T12:50:37;6.30;;;2.90;;
4630;SDS011;2328;48.170;11.602;2022-12-05T12:56:01;5.97;;;3.10;;
4630;SDS011;2328;48.170;11.602;2022-12-05T12:58:40;4.90;;;2.63;;
4630;SDS011;2328;48.170;11.602;2022-12-05T13:01:13;5.33;;;2.20;;
4630;SDS011;2328;48.170;11.602;2022-12-05T13:03:43;5.33;;;2.97;;
4630;SDS011;2328;48.170;11.602;2022-12-05T13:06:17;5.13;;;2.60;;
4630;SDS011;2328;48.170;11.602;2022-12-05T13:08:49;2.57;;;2.00;;
4630;SDS011;2328;48.170;11.602;2022-12-05T13:11:20;2.20;;;1.40;;
4630;SDS011;2328;48.170;11.602;2022-12-05T13:13:51;2.00;;;1.60;;
4630;SDS011;2328;48.170;11.602;2022-12-05T13:16:22;3.23;;;2.27;;
4630;SDS011;2328;48.170;11.602;2022-12-05T13:18:51;3.10;;;1.93;;
4630;SDS011;2328;48.170;11.602;2022-12-05T13:21:21;4.40;;;2.53;;
4630;SDS011;2328;48.170;11.602;2022-12-05T13:23:50;3.83;;;2.53;;
4630;SDS011;2328;48.170;11.602;2022-12-05T13:26:21;3.90;;;2.07;;
4630;SDS011;2328;48.170;11.602;2022-12-05T13:28:51;2.03;;;1.47;;
4630;SDS011;2328;48.170;11.602;2022-12-05T13:31:33;4.70;;;1.57;;
4630;SDS011;2328;48.170;11.602;2022-12-05T13:34:01;5.27;;;2.10;;
4630;SDS011;2328;48.170;11.602;2022-12-05T13:36:46;2.40;;;1.87;;
4630;SDS011;2328;48.170;11.602;2022-12-05T13:39:36;5.03;;;2.00;;
4630;SDS011;2328;48.170;11.602;2022-12-05T13:42:25;2.33;;;1.50;;
4630;SDS011;2328;48.170;11.602;2022-12-05T13:44:56;2.60;;;1.77;;
4630;SDS011;2328;48.170;11.602;2022-12-05T13:47:27;2.77;;;1.60;;
4630;SDS011;2328;48.170;11.602;2022-12-05T13:49:59;1.80;;;1.50;;
4630;SDS011;2328;48.170;11.602;2022-12-05T13:52:30;4.70;;;1.33;;
4630;SDS011;2328;48.170;11.602;2022-12-05T13:54:59;4.40;;;2.07;;
4630;SDS011;2328;48.170;11.602;2022-12-05T14:00:20;1.40;;;1.30;;
4630;SDS011;2328;48.170;11.602;2022-12-05T14:02:50;2.43;;;1.23;;
4630;SDS011;2328;48.170;11.602;2022-12-05T14:05:34;2.30;;;1.80;;
4630;SDS011;2328;48.170;11.602;2022-12-05T14:11:06;3.10;;;1.67;;
4630;SDS011;2328;48.170;11.602;2022-12-05T14:13:40;3.03;;;0.77;;
4630;SDS011;2328;48.170;11.602;2022-12-05T14:18:59;18.07;;;1.73;;
4630;SDS011;2328;48.170;11.602;2022-12-05T14:21:35;3.77;;;1.43;;
4630;SDS011;2328;48.170;11.602;2022-12-05T14:24:06;1.97;;;1.60;;
4630;SDS011;2328;48.170;11.602;2022-12-05T14:26:51;2.03;;;1.20;;
4630;SDS011;2328;48.170;11.602;2022-12-05T14:29:34;1.20;;;1.10;;
4630;SDS011;2328;48.170;11.602;2022-12-05T14:32:08;3.27;;;1.30;;
4630;SDS011;2328;48.170;11.602;2022-12-05T14:34:45;1.40;;;1.30;;
4630;SDS011;2328;48.170;11.602;2022-12-05T14:37:20;7.43;;;1.90;;
4630;SDS011;2328;48.170;11.602;2022-12-05T14:39:51;1.60;;;0.90;;
4630;SDS011;2328;48.170;11.602;2022-12-05T14:42:25;1.17;;;1.07;;
4630;SDS011;2328;48.170;11.602;2022-12-05T14:44:58;3.17;;;1.23;;
4630;SDS011;2328;48.170;11.602;2022-12-05T14:47:29;1.33;;;1.23;;
4630;SDS011;2328;48.170;11.602;2022-12-05T14:50:20;1.70;;;1.40;;
4630;SDS011;2328;48.170;11.602;2022-12-05T14:55:34;2.40;;;1.40;;
4630;SDS011;2328;48.170;11.602;2022-12-05T14:58:03;7.73;;;1.37;;
4630;SDS011;2328;48.170;11.602;2022-12-05T15:00:32;1.37;;;1.20;;
4630;SDS011;2328;48.170;11.602;2022-12-05T15:03:00;1.73;;;1.10;;
4630;SDS011;2328;48.170;11.602;2022-12-05T15:05:34;1.50;;;1.10;;
4630;SDS011;2328;48.170;11.602;2022-12-05T15:08:03;2.53;;;1.07;;
4630;SDS011;2328;48.170;11.602;2022-12-05T15:10:32;1.57;;;1.43;;
4630;SDS011;2328;48.170;11.602;2022-12-05T15:13:07;1.87;;;1.03;;
4630;SDS011;2328;48.170;11.602;2022-12-05T15:15:39;1.00;;;0.90;;
4630;SDS011;2328;48.170;11.602;2022-12-05T15:18:11;1.80;;;1.70;;
4630;SDS011;2328;48.170;11.602;2022-12-05T15:20:44;1.40;;;1.00;;
4630;SDS011;2328;48.170;11.602;2022-12-05T15:26:03;3.63;;;1.57;;
4630;SDS011;2328;48.170;11.602;2022-12-05T15:28:57;1.27;;;1.17;;
4630;SDS011;2328;48.170;11.602;2022-12-05T15:31:26;3.57;;;1.60;;
4630;SDS011;2328;48.170;11.602;2022-12-05T15:33:56;3.40;;;1.43;;
4630;SDS011;2328;48.170;11.602;2022-12-05T15:36:27;1.00;;;0.90;;
4630;SDS011;2328;48.170;11.602;2022-12-05T15:38:56;2.20;;;1.20;;
4630;SDS011;2328;48.170;11.602;2022-12-05T15:41:25;3.43;;;1.87;;
4630;SDS011;2328;48.170;11.602;2022-12-05T15:43:54;1.80;;;1.03;;
4630;SDS011;2328;48.170;11.602;2022-12-05T15:46:23;2.33;;;1.30;;
4630;SDS011;2328;48.170;11.602;2022-12-05T15:48:54;1.03;;;0.93;;
4630;SDS011;2328;48.170;11.602;2022-12-05T15:51:24;2.50;;;1.37;;
4630;SDS011;2328;48.170;11.602;2022-12-05T15:53:56;1.70;;;1.00;;
4630;SDS011;2328;48.170;11.602;2022-12-05T15:56:27;1.53;;;1.43;;